createdAt,value
2018-04-29T00:00:09.965Z,68.04
2018-04-29T00:02:35.760Z,68.14
2018-04-29T00:05:01.544Z,68.26
2018-04-29T00:07:27.337Z,68.46
2018-04-29T00:09:53.115Z,68.48
2018-04-29T00:12:18.867Z,68.46
2018-04-29T00:14:44.652Z,68.64
2018-04-29T00:17:10.412Z,68.90
2018-04-29T00:19:36.179Z,69.03
2018-04-29T00:22:01.927Z,69.15
2018-04-29T00:24:27.984Z,69.17
2018-04-29T00:26:53.768Z,69.14
2018-04-29T00:29:19.519Z,69.32
2018-04-29T00:31:45.291Z,69.55
2018-04-29T00:34:11.047Z,69.70
2018-04-29T00:36:36.819Z,69.79
2018-04-29T00:39:02.596Z,70.02
2018-04-29T00:41:28.604Z,70.14
2018-04-29T00:43:54.379Z,70.21
2018-04-29T00:46:20.156Z,70.35
2018-04-29T00:48:45.960Z,70.47
2018-04-29T00:51:11.696Z,70.51
2018-04-29T00:53:37.469Z,70.68
2018-04-29T00:56:03.232Z,70.97
2018-04-29T00:58:28.988Z,71.11
2018-04-29T01:00:54.752Z,71.12
2018-04-29T01:03:20.820Z,71.14
2018-04-29T01:05:46.575Z,71.31
2018-04-29T01:08:12.613Z,71.30
2018-04-29T01:10:38.393Z,71.45
2018-04-29T01:13:04.151Z,71.54
2018-04-29T01:15:29.948Z,71.64
2018-04-29T01:17:55.711Z,71.67
2018-04-29T01:20:21.486Z,71.64
2018-04-29T01:22:47.266Z,71.83
2018-04-29T01:25:13.035Z,71.96
2018-04-29T01:27:38.847Z,71.76
2018-04-29T01:30:04.603Z,71.87
2018-04-29T01:32:30.708Z,72.24
2018-04-29T01:34:56.468Z,72.42
2018-04-29T01:37:22.297Z,72.57
2018-04-29T01:39:48.065Z,72.70
2018-04-29T01:42:13.799Z,72.64
2018-04-29T01:44:39.565Z,72.68
2018-04-29T01:47:05.343Z,72.62
2018-04-29T01:49:31.108Z,72.76
2018-04-29T01:51:56.891Z,72.82
2018-04-29T01:54:22.648Z,72.91
2018-04-29T01:56:48.488Z,72.93
2018-04-29T01:59:14.249Z,73.01
2018-04-29T02:01:40.029Z,73.05
2018-04-29T02:04:05.783Z,73.12
2018-04-29T02:06:31.543Z,73.09
2018-04-29T02:08:57.298Z,72.84
2018-04-29T02:11:23.080Z,72.95
2018-04-29T02:13:48.872Z,73.19
2018-04-29T02:16:14.636Z,73.38
2018-04-29T02:18:40.518Z,73.46
2018-04-29T02:21:06.278Z,73.42
2018-04-29T02:23:32.047Z,73.49
2018-04-29T02:25:57.796Z,73.64
2018-04-29T02:28:23.563Z,73.85
2018-04-29T02:30:49.318Z,73.88
2018-04-29T02:33:15.104Z,73.91
2018-04-29T02:35:40.859Z,74.08
2018-04-29T02:38:06.636Z,74.30
2018-04-29T02:40:32.395Z,74.25
2018-04-29T02:42:58.198Z,74.28
2018-04-29T02:45:23.949Z,74.37
2018-04-29T02:47:49.728Z,74.45
2018-04-29T02:50:15.480Z,74.71
2018-04-29T02:52:41.549Z,75.03
2018-04-29T02:55:07.310Z,75.31
2018-04-29T02:57:33.147Z,75.32
2018-04-29T02:59:58.923Z,75.32
2018-04-29T03:02:24.719Z,75.50
2018-04-29T03:04:50.899Z,75.84
2018-04-29T03:07:16.685Z,76.26
2018-04-29T03:09:42.440Z,76.60
2018-04-29T03:12:08.204Z,76.96
2018-04-29T03:14:33.991Z,77.07
2018-04-29T03:16:59.926Z,76.98
2018-04-29T03:19:25.702Z,77.06
2018-04-29T03:21:51.447Z,77.21
2018-04-29T03:24:17.238Z,77.24
2018-04-29T03:26:42.983Z,77.54
2018-04-29T03:29:08.756Z,77.64
2018-04-29T03:31:34.507Z,77.85
2018-04-29T03:34:00.292Z,77.77
2018-04-29T03:36:26.040Z,77.74
2018-04-29T03:38:51.791Z,77.88
2018-04-29T03:41:17.562Z,77.58
2018-04-29T03:43:43.325Z,77.07
2018-04-29T03:46:09.084Z,76.83
2018-04-29T03:48:34.863Z,76.70
2018-04-29T03:51:00.626Z,76.53
2018-04-29T03:53:26.390Z,76.43
2018-04-29T03:55:52.408Z,76.41
2018-04-29T03:58:30.387Z,76.58
2018-04-29T04:01:08.504Z,76.87
2018-04-29T04:06:41.197Z,76.78
2018-04-29T04:09:06.992Z,76.91
2018-04-29T04:11:32.756Z,76.77
2018-04-29T04:13:58.491Z,76.70
2018-04-29T04:16:24.262Z,76.63
2018-04-29T04:18:50.132Z,76.59
2018-04-29T04:21:15.879Z,76.47
2018-04-29T04:23:41.725Z,76.59
2018-04-29T04:26:07.448Z,76.44
2018-04-29T04:28:33.397Z,76.44
2018-04-29T04:30:59.147Z,76.73
2018-04-29T04:33:24.923Z,76.47
2018-04-29T04:35:50.672Z,76.27
2018-04-29T04:38:16.438Z,76.17
2018-04-29T04:40:42.235Z,75.78
2018-04-29T04:43:07.983Z,75.40
2018-04-29T04:45:33.889Z,75.32
2018-04-29T04:47:59.692Z,75.05
2018-04-29T04:50:25.491Z,74.36
2018-04-29T04:52:51.255Z,73.74
2018-04-29T04:55:17.044Z,73.50
2018-04-29T04:57:42.811Z,73.42
2018-04-29T05:00:08.579Z,73.31
2018-04-29T05:02:34.329Z,72.85
2018-04-29T05:05:00.120Z,72.11
2018-04-29T05:07:25.898Z,72.05
2018-04-29T05:09:51.670Z,72.19
2018-04-29T05:12:17.415Z,72.21
2018-04-29T05:14:43.196Z,71.76
2018-04-29T05:17:08.950Z,71.86
2018-04-29T05:19:34.731Z,70.96
2018-04-29T05:22:00.485Z,68.98
2018-04-29T05:24:26.283Z,68.74
2018-04-29T05:26:52.039Z,69.16
2018-04-29T05:29:17.855Z,68.99
2018-04-29T05:31:43.607Z,68.97
2018-04-29T05:34:09.374Z,68.25
2018-04-29T05:36:35.500Z,67.29
2018-04-29T05:39:01.267Z,66.84
2018-04-29T05:41:27.032Z,66.87
2018-04-29T05:43:52.815Z,67.03
2018-04-29T05:46:18.580Z,67.00
2018-04-29T05:48:44.332Z,66.93
2018-04-29T05:51:10.099Z,67.00
2018-04-29T05:53:35.848Z,67.05
2018-04-29T05:56:01.755Z,66.86
2018-04-29T05:58:27.514Z,66.82
2018-04-29T06:00:53.280Z,66.63
2018-04-29T06:03:19.024Z,66.92
2018-04-29T06:05:44.787Z,66.23
2018-04-29T06:08:10.524Z,64.45
2018-04-29T06:10:36.269Z,62.98
2018-04-29T06:13:02.056Z,63.65
2018-04-29T06:15:27.890Z,63.62
2018-04-29T06:17:53.672Z,63.57
2018-04-29T06:20:19.524Z,63.30
2018-04-29T06:22:55.125Z,63.52
2018-04-29T06:25:21.967Z,64.11
2018-04-29T06:27:47.719Z,63.18
2018-04-29T06:30:13.499Z,63.18
2018-04-29T06:32:39.263Z,62.68
2018-04-29T06:35:05.048Z,62.47
2018-04-29T06:37:30.842Z,62.37
2018-04-29T06:39:56.592Z,62.31
2018-04-29T06:42:22.366Z,61.36
2018-04-29T06:44:48.178Z,61.57
2018-04-29T06:47:13.949Z,62.03
2018-04-29T06:49:39.712Z,62.79
2018-04-29T06:52:05.483Z,63.23
2018-04-29T06:54:31.248Z,63.53
2018-04-29T06:56:57.361Z,63.51
2018-04-29T06:59:23.108Z,63.80
2018-04-29T07:01:49.158Z,63.53
2018-04-29T07:04:14.919Z,63.59
2018-04-29T07:06:40.744Z,63.43
2018-04-29T07:09:06.479Z,63.22
2018-04-29T07:11:32.260Z,63.40
2018-04-29T07:13:58.005Z,63.00
2018-04-29T07:16:23.787Z,61.21
2018-04-29T07:18:49.596Z,61.28
2018-04-29T07:21:15.376Z,61.35
2018-04-29T07:23:41.123Z,60.80
2018-04-29T07:26:06.929Z,60.21
2018-04-29T07:28:32.660Z,59.69
2018-04-29T07:30:58.446Z,60.03
2018-04-29T07:33:24.188Z,59.40
2018-04-29T07:35:50.010Z,59.68
2018-04-29T07:38:15.976Z,59.17
2018-04-29T07:40:41.729Z,58.04
2018-04-29T07:43:07.519Z,57.77
2018-04-29T07:45:33.284Z,58.01
2018-04-29T07:47:59.049Z,57.51
2018-04-29T07:50:24.876Z,57.41
2018-04-29T07:52:50.648Z,57.14
2018-04-29T07:55:16.411Z,56.90
2018-04-29T07:57:42.213Z,57.03
2018-04-29T08:00:08.003Z,56.89
2018-04-29T08:02:33.775Z,57.09
2018-04-29T08:04:59.528Z,56.85
2018-04-29T08:07:25.322Z,55.94
2018-04-29T08:09:51.067Z,55.99
2018-04-29T08:12:16.877Z,56.04
2018-04-29T08:14:42.653Z,55.95
2018-04-29T08:17:08.583Z,55.30
2018-04-29T08:19:34.344Z,54.40
2018-04-29T08:22:00.130Z,54.49
2018-04-29T08:24:25.895Z,54.77
2018-04-29T08:26:51.667Z,54.79
2018-04-29T08:29:17.424Z,55.13
2018-04-29T08:31:43.203Z,56.17
2018-04-29T08:34:08.972Z,55.43
2018-04-29T08:36:34.757Z,55.13
2018-04-29T08:39:00.529Z,55.37
2018-04-29T08:41:26.296Z,54.98
2018-04-29T08:43:52.065Z,54.36
2018-04-29T08:46:17.824Z,55.20
2018-04-29T08:48:43.743Z,54.53
2018-04-29T08:51:09.514Z,54.10
2018-04-29T08:53:35.288Z,53.57
2018-04-29T08:56:07.939Z,52.43
2018-04-29T08:58:33.672Z,52.83
2018-04-29T09:00:59.423Z,51.71
2018-04-29T09:03:25.361Z,52.35
2018-04-29T09:05:51.176Z,52.35
2018-04-29T09:08:16.971Z,52.76
2018-04-29T09:10:42.731Z,52.72
2018-04-29T09:13:08.499Z,52.19
2018-04-29T09:15:34.281Z,51.74
2018-04-29T09:18:00.059Z,51.48
2018-04-29T09:20:25.819Z,51.63
2018-04-29T09:22:51.611Z,51.32
2018-04-29T09:25:17.351Z,51.42
2018-04-29T09:27:43.131Z,51.17
2018-04-29T09:30:08.887Z,50.95
2018-04-29T09:32:34.662Z,49.91
2018-04-29T09:35:00.423Z,50.30
2018-04-29T09:37:26.215Z,48.61
2018-04-29T09:39:51.959Z,49.89
2018-04-29T09:42:17.753Z,49.91
2018-04-29T09:44:43.531Z,50.10
2018-04-29T09:47:09.303Z,50.46
2018-04-29T09:49:35.099Z,48.83
2018-04-29T09:52:00.884Z,48.86
2018-04-29T09:54:26.647Z,49.38
2018-04-29T09:56:52.407Z,49.39
2018-04-29T09:59:18.194Z,49.65
2018-04-29T10:01:50.215Z,50.53
2018-04-29T10:04:16.295Z,50.43
2018-04-29T10:06:42.068Z,49.69
2018-04-29T10:09:07.855Z,49.44
2018-04-29T10:11:33.613Z,49.24
2018-04-29T10:13:59.426Z,49.12
2018-04-29T10:16:25.315Z,47.85
2018-04-29T10:18:51.103Z,48.24
2018-04-29T10:21:16.927Z,47.04
2018-04-29T10:23:42.803Z,46.69
2018-04-29T10:26:08.570Z,46.54
2018-04-29T10:28:34.364Z,46.84
2018-04-29T10:31:00.116Z,48.08
2018-04-29T10:33:25.914Z,48.63
2018-04-29T10:35:51.656Z,48.55
2018-04-29T10:38:17.439Z,47.22
2018-04-29T10:40:43.498Z,47.44
2018-04-29T10:43:09.282Z,46.28
2018-04-29T10:45:35.747Z,45.89
2018-04-29T10:48:01.520Z,46.42
2018-04-29T10:50:27.309Z,46.10
2018-04-29T10:52:53.084Z,46.22
2018-04-29T10:55:18.883Z,45.99
2018-04-29T10:57:44.630Z,45.42
2018-04-29T11:00:10.763Z,45.77
2018-04-29T11:02:36.569Z,44.10
2018-04-29T11:05:02.373Z,43.04
2018-04-29T11:07:28.112Z,40.40
2018-04-29T11:09:53.906Z,40.72
2018-04-29T11:12:19.648Z,41.19
2018-04-29T11:14:45.488Z,41.27
2018-04-29T11:17:11.244Z,40.67
2018-04-29T11:19:36.998Z,41.43
2018-04-29T11:22:02.822Z,40.42
2018-04-29T11:24:28.596Z,40.68
2018-04-29T11:26:54.362Z,41.19
2018-04-29T11:29:20.173Z,41.90
2018-04-29T11:31:45.964Z,42.23
2018-04-29T11:34:11.728Z,42.91
2018-04-29T11:36:37.520Z,42.15
2018-04-29T11:39:03.304Z,41.68
2018-04-29T11:41:29.089Z,41.91
2018-04-29T11:43:54.863Z,41.12
2018-04-29T11:46:20.628Z,41.82
2018-04-29T11:48:46.398Z,42.25
2018-04-29T11:51:12.351Z,41.55
2018-04-29T11:53:38.132Z,40.85
2018-04-29T11:56:03.904Z,40.81
2018-04-29T11:58:29.720Z,40.66
2018-04-29T12:00:55.507Z,41.00
2018-04-29T12:03:21.260Z,40.96
2018-04-29T12:05:47.050Z,40.82
2018-04-29T12:08:12.811Z,41.42
2018-04-29T12:10:38.647Z,41.66
2018-04-29T12:13:04.419Z,41.74
2018-04-29T12:15:30.199Z,40.98
2018-04-29T12:17:55.951Z,40.85
2018-04-29T12:20:21.718Z,40.11
2018-04-29T12:22:47.485Z,40.65
2018-04-29T12:25:13.263Z,40.58
2018-04-29T12:27:39.012Z,39.29
2018-04-29T12:30:04.807Z,39.68
2018-04-29T12:32:30.556Z,40.12
2018-04-29T12:34:56.327Z,40.12
2018-04-29T12:37:22.092Z,40.77
2018-04-29T12:39:47.926Z,39.92
2018-04-29T12:42:13.663Z,39.80
2018-04-29T12:44:39.448Z,40.79
2018-04-29T12:47:05.201Z,41.44
2018-04-29T12:49:30.983Z,42.63
2018-04-29T12:51:56.827Z,41.99
2018-04-29T12:54:22.594Z,42.16
2018-04-29T12:56:48.399Z,42.04
2018-04-29T12:59:14.150Z,42.03
2018-04-29T13:01:39.966Z,41.04
2018-04-29T13:04:05.720Z,40.11
2018-04-29T13:06:31.511Z,40.63
2018-04-29T13:08:57.253Z,39.99
2018-04-29T13:11:23.023Z,39.89
2018-04-29T13:13:48.803Z,39.51
2018-04-29T13:16:14.583Z,39.84
2018-04-29T13:18:40.367Z,39.70
2018-04-29T13:21:06.147Z,38.74
2018-04-29T13:23:31.933Z,39.90
2018-04-29T13:25:57.759Z,39.07
2018-04-29T13:28:23.495Z,39.85
2018-04-29T13:30:49.288Z,39.74
2018-04-29T13:33:15.068Z,40.22
2018-04-29T13:35:40.871Z,41.03
2018-04-29T13:38:06.625Z,41.23
2018-04-29T13:40:32.389Z,41.90
2018-04-29T13:42:58.177Z,42.60
2018-04-29T13:45:23.939Z,42.29
2018-04-29T13:47:49.697Z,42.49
2018-04-29T13:50:15.464Z,42.05
2018-04-29T13:52:41.556Z,42.21
2018-04-29T13:55:07.357Z,42.00
2018-04-29T13:57:33.175Z,41.64
2018-04-29T13:59:58.941Z,41.92
2018-04-29T14:02:24.711Z,41.97
2018-04-29T14:04:50.784Z,42.18
2018-04-29T14:07:16.566Z,42.88
2018-04-29T14:09:42.363Z,43.63
2018-04-29T14:12:08.124Z,44.00
2018-04-29T14:14:33.895Z,44.14
2018-04-29T14:16:59.666Z,44.23
2018-04-29T14:19:25.440Z,44.58
2018-04-29T14:21:51.233Z,45.02
2018-04-29T14:24:17.004Z,45.68
2018-04-29T14:26:42.963Z,45.76
2018-04-29T14:29:08.875Z,46.16
2018-04-29T14:31:34.668Z,45.85
2018-04-29T14:34:00.443Z,45.49
2018-04-29T14:36:26.210Z,45.76
2018-04-29T14:38:52.020Z,45.19
2018-04-29T14:41:17.783Z,44.32
2018-04-29T14:43:43.560Z,43.08
2018-04-29T14:46:09.339Z,43.28
2018-04-29T14:48:35.096Z,43.49
2018-04-29T14:51:00.854Z,44.07
2018-04-29T14:53:26.639Z,44.78
2018-04-29T14:55:52.469Z,45.82
2018-04-29T14:58:18.246Z,46.67
2018-04-29T15:00:44.020Z,46.80
2018-04-29T15:03:09.859Z,47.13
2018-04-29T15:05:35.619Z,47.57
2018-04-29T15:08:01.632Z,48.39
2018-04-29T15:10:27.413Z,48.79
2018-04-29T15:12:53.184Z,49.53
2018-04-29T15:15:18.956Z,49.85
2018-04-29T15:17:44.741Z,50.15
2018-04-29T15:20:10.529Z,50.38
2018-04-29T15:22:36.324Z,50.84
2018-04-29T15:25:02.080Z,50.81
2018-04-29T15:27:27.936Z,50.71
2018-04-29T15:29:53.773Z,50.30
2018-04-29T15:32:19.533Z,50.57
2018-04-29T15:34:45.295Z,50.55
2018-04-29T15:37:11.065Z,51.11
2018-04-29T15:39:36.831Z,51.24
2018-04-29T15:42:02.605Z,51.24
2018-04-29T15:44:28.528Z,51.02
2018-04-29T15:46:54.272Z,51.37
2018-04-29T15:49:20.039Z,51.74
2018-04-29T15:51:45.815Z,52.15
2018-04-29T15:54:11.588Z,52.40
2018-04-29T15:56:37.347Z,52.61
2018-04-29T15:59:03.134Z,52.56
2018-04-29T16:01:28.887Z,52.65
2018-04-29T16:03:54.719Z,52.58
2018-04-29T16:06:20.475Z,52.38
2018-04-29T16:08:46.239Z,52.03
2018-04-29T16:11:12.004Z,51.34
2018-04-29T16:13:37.871Z,51.27
2018-04-29T16:16:03.675Z,51.23
2018-04-29T16:18:29.459Z,51.10
2018-04-29T16:20:55.208Z,51.56
2018-04-29T16:23:21.079Z,51.50
2018-04-29T16:25:46.866Z,51.02
2018-04-29T16:28:12.659Z,51.01
2018-04-29T16:30:38.407Z,50.85
2018-04-29T16:33:04.178Z,50.18
2018-04-29T16:35:29.968Z,50.73
2018-04-29T16:37:55.972Z,50.61
2018-04-29T16:40:21.751Z,50.58
2018-04-29T16:42:47.515Z,50.40
2018-04-29T16:45:13.336Z,50.92
2018-04-29T16:47:39.080Z,51.28
2018-04-29T16:50:04.864Z,51.43
2018-04-29T16:52:30.676Z,51.27
2018-04-29T16:54:56.455Z,51.66
2018-04-29T16:57:22.221Z,51.80
2018-04-29T16:59:48.009Z,51.72
2018-04-29T17:02:13.743Z,51.87
2018-04-29T17:04:39.534Z,51.59
2018-04-29T17:07:05.283Z,51.83
2018-04-29T17:09:31.141Z,52.36
2018-04-29T17:11:56.824Z,52.64
2018-04-29T17:14:22.615Z,52.67
2018-04-29T17:16:48.433Z,52.67
2018-04-29T17:19:14.217Z,52.89
2018-04-29T17:21:39.989Z,53.33
2018-04-29T17:24:05.820Z,53.94
2018-04-29T17:26:31.564Z,54.42
2018-04-29T17:28:57.428Z,54.40
2018-04-29T17:31:23.187Z,54.86
2018-04-29T17:33:48.955Z,54.94
2018-04-29T17:36:14.722Z,55.32
2018-04-29T17:38:40.471Z,55.52
2018-04-29T17:41:06.223Z,55.95
2018-04-29T17:43:32.007Z,56.24
2018-04-29T17:45:57.775Z,56.62
2018-04-29T17:48:23.730Z,56.82
2018-04-29T17:50:49.508Z,56.89
2018-04-29T17:53:15.424Z,57.27
2018-04-29T17:55:41.194Z,57.48
2018-04-29T17:58:07.021Z,58.01
2018-04-29T18:00:32.811Z,58.26
2018-04-29T18:02:58.582Z,58.43
2018-04-29T18:05:24.359Z,58.75
2018-04-29T18:07:50.125Z,58.80
2018-04-29T18:10:15.919Z,58.94
2018-04-29T18:12:41.687Z,59.04
2018-04-29T18:15:07.623Z,59.13
2018-04-29T18:17:33.403Z,59.21
2018-04-29T18:19:59.139Z,59.26
2018-04-29T18:22:24.931Z,59.39
2018-04-29T18:24:50.750Z,59.54
2018-04-29T18:27:16.499Z,59.56
2018-04-29T18:29:42.298Z,59.88
2018-04-29T18:32:08.071Z,60.09
2018-04-29T18:34:33.844Z,60.20
2018-04-29T18:36:59.667Z,60.36
2018-04-29T18:39:25.475Z,60.60
2018-04-29T18:41:51.244Z,60.91
2018-04-29T18:44:17.016Z,60.97
2018-04-29T18:46:42.835Z,61.04
2018-04-29T18:49:08.628Z,61.14
2018-04-29T18:51:34.468Z,61.23
2018-04-29T18:54:00.384Z,61.32
2018-04-29T18:56:26.317Z,61.62
2018-04-29T18:58:52.068Z,61.67
2018-04-29T19:01:17.876Z,61.84
2018-04-29T19:03:43.671Z,61.94
2018-04-29T19:06:09.500Z,61.92
2018-04-29T19:08:35.276Z,62.10
2018-04-29T19:11:01.051Z,62.21
2018-04-29T19:13:26.811Z,62.33
2018-04-29T19:15:52.592Z,62.35
2018-04-29T19:18:18.365Z,62.47
2018-04-29T19:20:44.208Z,62.62
2018-04-29T19:23:09.930Z,62.79
2018-04-29T19:25:35.732Z,62.93
2018-04-29T19:28:01.507Z,63.10
2018-04-29T19:30:27.282Z,63.51
2018-04-29T19:32:53.094Z,63.85
2018-04-29T19:35:18.871Z,64.16
2018-04-29T19:37:44.649Z,64.57
2018-04-29T19:40:10.433Z,64.71
2018-04-29T19:42:36.277Z,64.92
2018-04-29T19:45:02.056Z,65.13
2018-04-29T19:47:27.840Z,65.15
2018-04-29T19:49:53.614Z,65.35
2018-04-29T19:52:19.395Z,65.55
2018-04-29T19:54:45.160Z,66.17
2018-04-29T19:57:11.193Z,66.22
2018-04-29T19:59:36.999Z,66.37
2018-04-29T20:02:02.819Z,66.58
2018-04-29T20:04:28.607Z,67.02
2018-04-29T20:06:54.360Z,66.89
2018-04-29T20:09:20.147Z,66.87
2018-04-29T20:11:45.903Z,67.13
2018-04-29T20:14:11.679Z,67.18
2018-04-29T20:16:37.483Z,67.48
2018-04-29T20:19:03.246Z,67.61
2018-04-29T20:21:29.026Z,67.78
2018-04-29T20:23:54.926Z,67.83
2018-04-29T20:26:20.619Z,67.97
2018-04-29T20:28:46.372Z,68.01
2018-04-29T20:31:12.177Z,68.07
2018-04-29T20:33:37.947Z,68.20
2018-04-29T20:36:03.695Z,68.37
2018-04-29T20:38:29.611Z,68.54
2018-04-29T20:40:55.406Z,68.60
2018-04-29T20:43:21.188Z,68.67
2018-04-29T20:45:46.974Z,68.62
2018-04-29T20:48:12.719Z,68.55
2018-04-29T20:50:38.507Z,68.72
2018-04-29T20:53:04.300Z,68.73
2018-04-29T20:55:30.053Z,68.92
2018-04-29T20:57:56.164Z,69.03
2018-04-29T21:00:21.932Z,69.16
2018-04-29T21:02:47.705Z,69.44
2018-04-29T21:05:13.720Z,69.73
2018-04-29T21:07:39.555Z,70.04
2018-04-29T21:10:05.307Z,70.30
2018-04-29T21:12:31.075Z,70.61
2018-04-29T21:14:56.832Z,70.80
2018-04-29T21:17:22.668Z,70.95
2018-04-29T21:19:48.396Z,70.95
2018-04-29T21:22:14.155Z,71.07
2018-04-29T21:24:40.167Z,71.36
2018-04-29T21:27:05.959Z,71.68
2018-04-29T21:29:31.711Z,71.98
2018-04-29T21:31:57.476Z,72.10
2018-04-29T21:34:23.246Z,72.57
2018-04-29T21:36:49.043Z,72.71
2018-04-29T21:39:14.817Z,72.80
2018-04-29T21:41:40.579Z,72.84
2018-04-29T21:44:06.339Z,72.83
2018-04-29T21:46:32.123Z,72.98
2018-04-29T21:48:57.888Z,73.26
2018-04-29T21:51:23.664Z,73.35
2018-04-29T21:53:49.431Z,73.69
2018-04-29T21:56:15.432Z,73.78
2018-04-29T21:58:41.147Z,73.77
2018-04-29T22:01:06.917Z,73.86
2018-04-29T22:03:32.700Z,74.19
2018-04-29T22:05:58.452Z,74.28
2018-04-29T22:08:24.222Z,74.28
2018-04-29T22:10:49.987Z,74.34
2018-04-29T22:13:15.728Z,74.66
2018-04-29T22:15:41.532Z,74.69
2018-04-29T22:18:07.288Z,74.85
2018-04-29T22:20:33.068Z,74.89
2018-04-29T22:22:58.866Z,75.08
2018-04-29T22:25:24.631Z,74.97
2018-04-29T22:27:50.389Z,74.90
2018-04-29T22:30:16.168Z,74.96
2018-04-29T22:32:41.964Z,75.01
2018-04-29T22:35:07.759Z,74.99
2018-04-29T22:37:33.507Z,75.03
2018-04-29T22:39:59.243Z,75.09
2018-04-29T22:42:25.015Z,75.23
2018-04-29T22:44:56.871Z,75.22
2018-04-29T22:47:22.643Z,75.22
2018-04-29T22:49:55.295Z,75.23
2018-04-29T22:52:21.057Z,75.35
2018-04-29T22:54:46.827Z,75.39
2018-04-29T22:57:12.595Z,75.31
2018-04-29T22:59:38.652Z,75.42
2018-04-29T23:02:04.420Z,75.30
2018-04-29T23:04:30.243Z,75.35
2018-04-29T23:06:56.004Z,75.35
2018-04-29T23:09:21.768Z,75.33
2018-04-29T23:11:47.562Z,75.33
2018-04-29T23:14:13.323Z,75.37
2018-04-29T23:16:39.075Z,75.36
2018-04-29T23:19:04.835Z,75.29
2018-04-29T23:21:30.854Z,75.35
2018-04-29T23:23:56.667Z,75.19
2018-04-29T23:26:22.489Z,75.15
2018-04-29T23:28:48.256Z,74.98
2018-04-29T23:31:14.024Z,75.00
2018-04-29T23:33:39.772Z,74.93
2018-04-29T23:36:05.551Z,74.80
2018-04-29T23:38:31.292Z,74.66
2018-04-29T23:40:57.060Z,74.58
2018-04-29T23:43:22.817Z,74.36
2018-04-29T23:45:48.619Z,74.26
2018-04-29T23:48:14.372Z,74.12
2018-04-29T23:50:40.162Z,74.00
2018-04-29T23:53:05.980Z,73.66
2018-04-29T23:55:31.920Z,73.60
2018-04-29T23:57:57.697Z,73.60
